createdAt,value
2023-01-11T00:00:26.978Z,1.63
2023-01-11T00:03:04.486Z,3.63
2023-01-11T00:05:44.154Z,0.80
2023-01-11T00:08:19.262Z,0.80
2023-01-11T00:10:55.361Z,1.70
2023-01-11T00:13:31.617Z,0.73
2023-01-11T00:16:08.525Z,0.70
2023-01-11T00:18:43.512Z,1.23
2023-01-11T00:21:18.540Z,1.77
2023-01-11T00:23:53.408Z,1.00
2023-01-11T00:26:28.320Z,1.37
2023-01-11T00:29:03.346Z,3.70
2023-01-11T00:31:38.329Z,0.77
2023-01-11T00:34:13.293Z,0.50
2023-01-11T00:36:48.326Z,1.33
2023-01-11T00:39:23.201Z,1.00
2023-01-11T00:42:16.455Z,2.80
2023-01-11T00:45:09.995Z,0.77
2023-01-11T00:47:57.710Z,1.17
2023-01-11T00:50:36.657Z,0.90
2023-01-11T00:53:11.692Z,1.03
2023-01-11T00:55:46.587Z,1.67
2023-01-11T00:58:21.492Z,3.43
2023-01-11T01:00:56.402Z,2.03
2023-01-11T01:03:31.294Z,0.73
2023-01-11T01:06:06.276Z,0.50
2023-01-11T01:08:41.132Z,0.70
2023-01-11T01:11:16.144Z,0.50
2023-01-11T01:14:09.390Z,0.57
2023-01-11T01:16:46.225Z,0.63
2023-01-11T01:19:22.434Z,3.20
2023-01-11T01:21:59.124Z,0.60
2023-01-11T01:24:34.152Z,0.70
2023-01-11T01:27:09.104Z,0.60
2023-01-11T01:29:44.619Z,1.50
2023-01-11T01:32:19.513Z,2.70
2023-01-11T01:34:54.410Z,0.40
2023-01-11T01:37:29.290Z,0.50
2023-01-11T01:40:05.707Z,0.97
2023-01-11T01:42:40.585Z,0.53
2023-01-11T01:45:28.909Z,0.83
2023-01-11T01:48:06.786Z,0.60
2023-01-11T01:50:50.179Z,0.60
2023-01-11T01:53:37.401Z,1.53
2023-01-11T01:56:20.787Z,0.60
2023-01-11T01:59:01.142Z,1.37
2023-01-11T02:01:47.893Z,1.23
2023-01-11T02:04:29.305Z,0.50
2023-01-11T02:07:13.754Z,0.50
2023-01-11T02:09:57.421Z,0.77
2023-01-11T02:12:38.590Z,0.50
2023-01-11T02:15:17.095Z,0.60
2023-01-11T02:17:52.019Z,1.43
2023-01-11T02:20:29.316Z,0.57
2023-01-11T02:23:28.352Z,0.40
2023-01-11T02:26:47.798Z,0.83
2023-01-11T02:29:31.420Z,0.60
2023-01-11T02:32:26.304Z,0.40
2023-01-11T02:35:44.460Z,0.70
2023-01-11T02:38:34.022Z,0.50
2023-01-11T02:42:02.392Z,0.60
2023-01-11T02:45:02.175Z,2.00
2023-01-11T02:47:47.637Z,0.40
2023-01-11T02:50:36.039Z,0.53
2023-01-11T02:53:38.766Z,0.50
2023-01-11T02:56:21.825Z,0.50
2023-01-11T02:58:58.069Z,0.40
2023-01-11T03:01:33.003Z,0.70
2023-01-11T03:04:32.072Z,0.50
2023-01-11T03:07:12.900Z,0.60
2023-01-11T03:09:59.692Z,0.40
2023-01-11T03:13:19.031Z,0.60
2023-01-11T03:16:23.579Z,0.60
2023-01-11T03:19:14.465Z,0.43
2023-01-11T03:22:08.081Z,0.43
2023-01-11T03:24:55.595Z,1.13
2023-01-11T03:27:49.833Z,1.53
2023-01-11T03:30:48.760Z,0.90
2023-01-11T03:33:37.981Z,0.40
2023-01-11T03:36:42.413Z,0.87
2023-01-11T03:39:57.885Z,0.40
2023-01-11T03:42:35.443Z,0.40
2023-01-11T03:45:10.687Z,0.43
2023-01-11T03:47:45.795Z,0.40
2023-01-11T03:50:22.278Z,0.83
2023-01-11T03:52:59.560Z,1.10
2023-01-11T03:55:40.092Z,0.40
2023-01-11T03:58:15.493Z,1.50
2023-01-11T04:00:51.144Z,0.40
2023-01-11T04:03:28.208Z,0.43
2023-01-11T04:06:03.593Z,0.90
2023-01-11T04:08:38.581Z,0.30
2023-01-11T04:11:13.815Z,0.50
2023-01-11T04:13:48.743Z,0.40
2023-01-11T04:16:23.674Z,0.53
2023-01-11T04:18:58.609Z,0.30
2023-01-11T04:21:33.498Z,0.30
2023-01-11T04:24:08.806Z,0.30
2023-01-11T04:26:43.865Z,0.30
2023-01-11T04:29:18.812Z,0.43
2023-01-11T04:31:53.797Z,0.40
2023-01-11T04:34:28.748Z,0.30
2023-01-11T04:37:03.674Z,2.40
2023-01-11T04:39:39.082Z,0.57
2023-01-11T04:42:19.642Z,0.77
2023-01-11T04:44:54.653Z,0.40
2023-01-11T04:47:29.554Z,0.50
2023-01-11T04:50:05.597Z,0.40
2023-01-11T04:52:41.741Z,0.30
2023-01-11T04:55:17.136Z,0.53
2023-01-11T04:57:52.022Z,0.63
2023-01-11T05:00:26.905Z,0.43
2023-01-11T05:03:01.845Z,0.70
2023-01-11T05:05:36.763Z,0.70
2023-01-11T05:08:11.623Z,0.70
2023-01-11T05:10:57.028Z,0.40
2023-01-11T05:13:45.043Z,0.50
2023-01-11T05:16:20.815Z,1.13
2023-01-11T05:18:59.754Z,0.30
2023-01-11T05:21:39.271Z,0.90
2023-01-11T05:24:16.175Z,0.40
2023-01-11T05:26:52.450Z,0.67
2023-01-11T05:29:28.533Z,0.30
2023-01-11T05:32:03.526Z,0.30
2023-01-11T05:34:38.614Z,0.50
2023-01-11T05:37:13.541Z,0.83
2023-01-11T05:39:48.457Z,0.40
2023-01-11T05:42:23.446Z,0.80
2023-01-11T05:45:16.925Z,0.50
2023-01-11T05:47:53.768Z,0.50
2023-01-11T05:50:29.844Z,0.57
2023-01-11T05:53:07.418Z,0.70
2023-01-11T05:55:53.650Z,0.40
2023-01-11T05:58:28.724Z,0.43
2023-01-11T06:01:04.709Z,0.93
2023-01-11T06:03:39.657Z,0.30
2023-01-11T06:06:16.508Z,0.80
2023-01-11T06:08:51.458Z,0.30
2023-01-11T06:11:26.442Z,0.97
2023-01-11T06:14:01.533Z,0.40
2023-01-11T06:16:36.476Z,0.40
2023-01-11T06:19:11.536Z,0.50
2023-01-11T06:21:46.622Z,0.90
2023-01-11T06:24:21.561Z,0.30
2023-01-11T06:26:56.465Z,0.40
2023-01-11T06:29:31.423Z,0.40
2023-01-11T06:32:06.523Z,0.97
2023-01-11T06:34:41.522Z,0.50
2023-01-11T06:37:16.505Z,0.80
2023-01-11T06:39:51.489Z,0.40
2023-01-11T06:42:26.500Z,0.40
2023-01-11T06:45:01.538Z,1.33
2023-01-11T06:47:36.611Z,0.90
2023-01-11T06:50:11.840Z,0.47
2023-01-11T06:52:54.134Z,0.50
2023-01-11T06:55:29.770Z,0.40
2023-01-11T06:58:04.695Z,0.60
2023-01-11T07:00:39.754Z,0.40
2023-01-11T07:03:14.984Z,0.40
2023-01-11T07:05:50.267Z,0.93
2023-01-11T07:08:26.741Z,0.40
2023-01-11T07:11:01.806Z,0.40
2023-01-11T07:13:36.727Z,0.80
2023-01-11T07:16:11.718Z,0.40
2023-01-11T07:18:46.925Z,1.03
2023-01-11T07:21:21.891Z,0.40
2023-01-11T07:23:56.903Z,0.50
2023-01-11T07:26:33.105Z,0.40
2023-01-11T07:29:11.405Z,0.60
2023-01-11T07:31:46.613Z,0.70
2023-01-11T07:34:21.507Z,0.43
2023-01-11T07:36:56.623Z,0.50
2023-01-11T07:39:42.943Z,4.93
2023-01-11T07:42:36.875Z,0.50
2023-01-11T07:45:11.893Z,0.60
2023-01-11T07:47:51.529Z,0.60
2023-01-11T07:50:26.487Z,0.70
2023-01-11T07:53:01.540Z,0.40
2023-01-11T07:55:37.818Z,0.50
2023-01-11T07:58:14.097Z,0.60
2023-01-11T08:00:49.070Z,1.47
2023-01-11T08:03:24.136Z,0.53
2023-01-11T08:05:59.521Z,0.70
2023-01-11T08:08:34.394Z,0.50
2023-01-11T08:11:28.187Z,0.60
2023-01-11T08:14:21.641Z,0.80
2023-01-11T08:16:56.631Z,0.60
2023-01-11T08:19:31.843Z,0.70
2023-01-11T08:22:07.691Z,4.53
2023-01-11T08:24:42.683Z,1.07
2023-01-11T08:27:17.604Z,0.63
2023-01-11T08:29:52.569Z,0.60
2023-01-11T08:32:30.373Z,2.40
2023-01-11T08:35:06.065Z,0.77
2023-01-11T08:37:41.028Z,0.73
2023-01-11T08:40:15.988Z,0.70
2023-01-11T08:42:57.326Z,1.00
2023-01-11T08:45:34.104Z,0.73
2023-01-11T08:48:09.097Z,1.23
2023-01-11T08:50:45.016Z,1.20
2023-01-11T08:53:20.890Z,1.73
2023-01-11T08:55:55.880Z,1.37
2023-01-11T08:58:30.821Z,0.90
2023-01-11T09:01:09.093Z,0.73
2023-01-11T09:03:44.107Z,0.63
2023-01-11T09:06:19.430Z,0.60
2023-01-11T09:08:54.828Z,0.97
2023-01-11T09:11:48.210Z,0.50
2023-01-11T09:14:27.730Z,1.37
2023-01-11T09:17:02.768Z,0.80
2023-01-11T09:19:37.767Z,0.40
2023-01-11T09:22:12.752Z,5.70
2023-01-11T09:24:47.727Z,0.60
2023-01-11T09:27:22.761Z,1.73
2023-01-11T09:29:57.719Z,0.57
2023-01-11T09:32:32.711Z,1.00
2023-01-11T09:35:09.045Z,0.60
2023-01-11T09:37:52.217Z,0.50
2023-01-11T09:41:08.451Z,0.63
2023-01-11T09:43:59.596Z,0.40
2023-01-11T09:46:38.978Z,0.50
2023-01-11T09:49:28.430Z,1.10
2023-01-11T09:52:28.877Z,1.03
2023-01-11T09:55:05.041Z,1.00
2023-01-11T09:58:28.500Z,0.40
2023-01-11T10:01:15.675Z,0.50
2023-01-11T10:04:32.863Z,0.77
2023-01-11T10:18:27.583Z,2.00
2023-01-11T10:18:28.171Z,0.40
2023-01-11T10:20:56.196Z,1.17
2023-01-11T10:23:49.716Z,0.60
2023-01-11T10:26:29.211Z,1.17
2023-01-11T10:29:46.178Z,0.70
2023-01-11T10:32:53.272Z,1.13
2023-01-11T10:36:10.588Z,0.63
2023-01-11T10:39:46.534Z,1.00
2023-01-11T10:42:28.170Z,0.50
2023-01-11T10:45:13.588Z,0.40
2023-01-11T10:48:01.590Z,0.50
2023-01-11T10:50:38.415Z,0.93
2023-01-11T10:53:27.243Z,0.50
2023-01-11T10:57:02.455Z,0.50
2023-01-11T11:00:12.843Z,0.60
2023-01-11T11:03:26.399Z,0.57
2023-01-11T11:06:17.281Z,0.40
2023-01-11T11:09:22.865Z,0.60
2023-01-11T11:12:14.950Z,0.57
2023-01-11T11:15:02.535Z,1.03
2023-01-11T11:17:40.444Z,0.40
2023-01-11T11:20:24.274Z,0.60
2023-01-11T11:22:59.863Z,0.57
2023-01-11T11:25:43.298Z,0.50
2023-01-11T11:28:32.233Z,0.50
2023-01-11T11:31:08.280Z,0.67
2023-01-11T11:33:46.652Z,0.50
2023-01-11T11:36:22.143Z,0.50
2023-01-11T11:39:25.669Z,1.57
2023-01-11T11:42:15.609Z,0.53
2023-01-11T11:45:11.696Z,0.53
2023-01-11T11:48:02.117Z,0.50
2023-01-11T11:50:44.608Z,0.93
2023-01-11T11:53:39.213Z,2.20
2023-01-11T11:56:24.209Z,0.60
2023-01-11T11:59:06.326Z,0.60
2023-01-11T12:01:47.368Z,1.13
2023-01-11T12:04:47.610Z,0.50
2023-01-11T12:07:27.570Z,1.77
2023-01-11T12:10:13.302Z,0.60
2023-01-11T12:13:03.357Z,1.27
2023-01-11T12:15:38.414Z,0.60
2023-01-11T12:18:46.644Z,0.50
2023-01-11T12:21:25.563Z,0.93
2023-01-11T12:24:19.679Z,3.30
2023-01-11T12:27:09.455Z,1.60
2023-01-11T12:29:53.377Z,0.50
2023-01-11T12:32:48.748Z,0.67
2023-01-11T12:36:03.165Z,1.00
2023-01-11T12:39:10.580Z,0.77
2023-01-11T12:42:38.197Z,1.17
2023-01-11T12:45:21.940Z,1.13
2023-01-11T12:48:49.779Z,0.70
2023-01-11T12:51:44.392Z,0.60
2023-01-11T12:54:31.175Z,0.60
2023-01-11T12:57:51.085Z,0.60
2023-01-11T13:00:43.859Z,1.27
2023-01-11T13:03:53.117Z,0.57
2023-01-11T13:07:11.254Z,1.00
2023-01-11T13:10:13.644Z,0.80
2023-01-11T13:13:01.823Z,0.73
2023-01-11T13:16:17.996Z,0.60
2023-01-11T13:19:20.020Z,0.43
2023-01-11T13:21:56.918Z,1.03
2023-01-11T13:24:32.998Z,1.17
2023-01-11T13:27:15.277Z,0.60
2023-01-11T13:30:02.128Z,0.50
2023-01-11T13:32:40.175Z,1.37
2023-01-11T13:35:30.274Z,0.73
2023-01-11T13:38:34.490Z,1.43
2023-01-11T13:41:22.046Z,0.60
2023-01-11T13:44:06.000Z,0.80
2023-01-11T13:46:52.393Z,1.23
2023-01-11T13:50:03.994Z,0.50
2023-01-11T13:53:03.301Z,0.50
2023-01-11T13:56:06.316Z,0.97
2023-01-11T13:58:58.723Z,0.60
2023-01-11T14:02:03.117Z,0.50
2023-01-11T14:05:04.221Z,1.17
2023-01-11T14:08:24.407Z,0.63
2023-01-11T14:11:03.323Z,1.10
2023-01-11T14:14:05.967Z,3.10
2023-01-11T14:17:07.805Z,1.50
2023-01-11T14:20:28.865Z,0.97
2023-01-11T14:23:23.828Z,0.70
2023-01-11T14:26:49.841Z,1.33
2023-01-11T14:30:00.059Z,1.43
2023-01-11T14:32:56.411Z,0.97
2023-01-11T14:36:08.720Z,0.83
2023-01-11T14:39:09.212Z,0.90
2023-01-11T14:42:19.010Z,0.80
2023-01-11T14:45:41.194Z,1.03
2023-01-11T14:48:48.209Z,1.07
2023-01-11T14:51:53.086Z,0.57
2023-01-11T14:54:31.621Z,0.97
2023-01-11T14:57:09.180Z,1.30
2023-01-11T14:59:44.310Z,0.80
2023-01-11T15:02:27.133Z,1.77
2023-01-11T15:05:07.213Z,0.60
2023-01-11T15:07:42.803Z,0.63
2023-01-11T15:10:55.898Z,0.63
2023-01-11T15:13:46.451Z,0.50
2023-01-11T15:16:42.605Z,0.70
2023-01-11T15:19:33.862Z,0.60
2023-01-11T15:22:28.549Z,2.27
2023-01-11T15:25:23.567Z,0.67
2023-01-11T15:28:05.136Z,1.43
2023-01-11T15:30:40.243Z,0.93
2023-01-11T15:33:18.091Z,2.10
2023-01-11T15:35:55.753Z,1.93
2023-01-11T15:39:16.761Z,1.90
2023-01-11T15:42:17.266Z,1.60
2023-01-11T15:44:58.147Z,1.00
2023-01-11T15:48:06.038Z,0.90
2023-01-11T15:51:05.407Z,0.60
2023-01-11T15:53:56.503Z,3.23
2023-01-11T15:57:13.692Z,0.73
2023-01-11T16:00:36.439Z,2.03
2023-01-11T16:03:41.796Z,1.63
2023-01-11T16:06:50.660Z,0.60
2023-01-11T16:09:56.301Z,0.90
2023-01-11T16:13:01.860Z,0.80
2023-01-11T16:16:14.495Z,0.90
2023-01-11T16:19:20.576Z,0.60
2023-01-11T16:21:59.196Z,1.90
2023-01-11T16:24:45.029Z,0.70
2023-01-11T16:27:27.485Z,0.80
2023-01-11T16:30:02.860Z,2.23
2023-01-11T16:32:37.887Z,1.90
2023-01-11T16:35:25.411Z,2.37
2023-01-11T16:38:02.596Z,1.73
2023-01-11T16:40:41.938Z,0.57
2023-01-11T16:43:29.693Z,0.90
2023-01-11T16:46:04.812Z,3.43
2023-01-11T16:48:40.047Z,2.50
2023-01-11T16:51:17.020Z,4.20
2023-01-11T16:53:59.380Z,1.37
2023-01-11T16:56:35.847Z,2.27
2023-01-11T16:59:13.660Z,2.03
2023-01-11T17:01:59.283Z,2.83
2023-01-11T17:04:49.526Z,2.17
2023-01-11T17:07:28.690Z,3.23
2023-01-11T17:10:24.953Z,7.50
2023-01-11T17:13:55.097Z,1.10
2023-01-11T17:16:39.734Z,1.43
2023-01-11T17:19:22.016Z,3.30
2023-01-11T17:22:06.872Z,5.93
2023-01-11T17:24:49.082Z,1.70
2023-01-11T17:27:42.533Z,2.90
2023-01-11T17:30:24.235Z,2.30
2023-01-11T17:32:59.706Z,4.00
2023-01-11T17:35:37.423Z,3.63
2023-01-11T17:38:24.597Z,3.53
2023-01-11T17:41:01.305Z,3.83
2023-01-11T17:43:55.834Z,2.93
2023-01-11T17:46:30.879Z,1.53
2023-01-11T17:49:26.069Z,1.73
2023-01-11T17:52:10.241Z,3.50
2023-01-11T17:54:45.445Z,3.77
2023-01-11T17:57:20.307Z,4.20
2023-01-11T18:00:23.802Z,1.00
2023-01-11T18:03:00.093Z,2.10
2023-01-11T18:05:35.347Z,1.27
2023-01-11T18:08:28.565Z,1.53
2023-01-11T18:11:03.633Z,0.70
2023-01-11T18:13:38.758Z,2.90
2023-01-11T18:16:19.624Z,1.90
2023-01-11T18:18:56.273Z,2.23
2023-01-11T18:21:41.045Z,2.30
2023-01-11T18:24:26.560Z,1.37
2023-01-11T18:27:17.283Z,0.80
2023-01-11T18:29:54.481Z,4.60
2023-01-11T18:32:36.272Z,1.77
2023-01-11T18:35:19.129Z,2.87
2023-01-11T18:37:54.593Z,2.13
2023-01-11T18:40:30.942Z,1.40
2023-01-11T18:43:05.932Z,1.67
2023-01-11T18:45:44.879Z,5.20
2023-01-11T18:48:20.682Z,5.20
2023-01-11T18:50:55.904Z,4.03
2023-01-11T18:53:30.856Z,2.90
2023-01-11T18:56:06.084Z,2.03
2023-01-11T18:58:41.220Z,8.50
2023-01-11T19:01:16.612Z,4.53
2023-01-11T19:03:51.629Z,5.80
2023-01-11T19:06:28.457Z,5.73
2023-01-11T19:09:06.422Z,2.60
2023-01-11T19:11:41.354Z,8.30
2023-01-11T19:14:16.277Z,3.73
2023-01-11T19:16:51.301Z,7.43
2023-01-11T19:19:26.375Z,2.33
2023-01-11T19:22:01.331Z,3.10
2023-01-11T19:24:36.315Z,2.97
2023-01-11T19:27:13.529Z,3.00
2023-01-11T19:29:48.694Z,4.33
2023-01-11T19:32:25.431Z,4.07
2023-01-11T19:35:00.511Z,2.50
2023-01-11T19:37:37.893Z,6.87
2023-01-11T19:40:13.753Z,8.53
2023-01-11T19:42:52.206Z,4.80
2023-01-11T19:45:27.128Z,7.63
2023-01-11T19:48:02.137Z,10.37
2023-01-11T19:50:37.430Z,6.27
2023-01-11T19:53:13.327Z,2.20
2023-01-11T19:55:48.309Z,4.30
2023-01-11T19:58:23.759Z,3.37
2023-01-11T20:00:58.997Z,6.22
2023-01-11T20:03:33.931Z,5.33
2023-01-11T20:06:09.085Z,5.20
2023-01-11T20:08:44.036Z,5.63
2023-01-11T20:11:19.705Z,5.10
2023-01-11T20:13:54.638Z,3.60
2023-01-11T20:16:29.564Z,5.90
2023-01-11T20:19:04.529Z,9.60
2023-01-11T20:21:39.682Z,5.20
2023-01-11T20:24:15.146Z,6.90
2023-01-11T20:26:50.102Z,3.53
2023-01-11T20:29:25.013Z,7.00
2023-01-11T20:32:15.452Z,2.40
2023-01-11T20:34:54.807Z,3.57
2023-01-11T20:37:29.797Z,6.43
2023-01-11T20:40:05.515Z,8.37
2023-01-11T20:42:40.420Z,6.17
2023-01-11T20:45:16.163Z,5.23
2023-01-11T20:47:51.045Z,5.23
2023-01-11T20:50:26.126Z,4.40
2023-01-11T20:53:01.111Z,5.40
2023-01-11T20:55:37.345Z,4.40
2023-01-11T20:58:13.197Z,3.60
2023-01-11T21:00:48.195Z,4.07
2023-01-11T21:03:24.856Z,2.70
2023-01-11T21:06:03.806Z,7.57
2023-01-11T21:08:39.228Z,5.43
2023-01-11T21:11:16.033Z,7.73
2023-01-11T21:13:55.978Z,4.03
2023-01-11T21:16:31.780Z,3.33
2023-01-11T21:19:07.743Z,12.90
2023-01-11T21:21:43.654Z,2.60
2023-01-11T21:24:18.617Z,3.13
2023-01-11T21:26:53.576Z,4.47
2023-01-11T21:29:28.565Z,3.73
2023-01-11T21:32:03.659Z,1.20
2023-01-11T21:34:38.586Z,5.00
2023-01-11T21:37:13.516Z,3.90
2023-01-11T21:39:48.386Z,4.83
2023-01-11T21:42:23.461Z,3.47
2023-01-11T21:44:58.589Z,6.33
2023-01-11T21:47:33.453Z,4.23
2023-01-11T21:50:09.208Z,3.17
2023-01-11T21:52:44.267Z,5.13
2023-01-11T21:55:19.438Z,2.90
2023-01-11T21:57:54.346Z,3.20
2023-01-11T22:00:30.953Z,4.60
2023-01-11T22:03:05.870Z,3.30
2023-01-11T22:05:40.760Z,2.90
2023-01-11T22:08:15.701Z,2.20
2023-01-11T22:11:02.018Z,3.10
2023-01-11T22:13:37.126Z,3.23
2023-01-11T22:16:17.875Z,2.87
2023-01-11T22:18:52.824Z,6.00
2023-01-11T22:21:28.410Z,3.20
2023-01-11T22:24:05.847Z,4.90
2023-01-11T22:26:41.201Z,1.70
2023-01-11T22:29:16.230Z,6.57
2023-01-11T22:32:00.995Z,4.07
2023-01-11T22:34:36.049Z,4.07
2023-01-11T22:37:11.166Z,10.23
2023-01-11T22:39:46.096Z,5.67
2023-01-11T22:42:20.984Z,3.30
2023-01-11T22:44:55.911Z,7.60
2023-01-11T22:47:31.155Z,3.47
2023-01-11T22:50:06.535Z,2.07
2023-01-11T22:52:41.621Z,10.40
2023-01-11T22:55:16.568Z,4.97
2023-01-11T22:57:51.494Z,3.20
2023-01-11T23:00:26.456Z,3.10
2023-01-11T23:03:01.391Z,2.90
2023-01-11T23:05:36.479Z,3.30
2023-01-11T23:08:13.078Z,6.53
2023-01-11T23:10:47.974Z,3.10
2023-01-11T23:13:41.124Z,5.10
2023-01-11T23:16:19.921Z,3.03
2023-01-11T23:18:55.032Z,2.00
2023-01-11T23:21:30.103Z,5.10
2023-01-11T23:24:05.680Z,3.10
2023-01-11T23:26:40.874Z,3.37
2023-01-11T23:29:15.968Z,6.50
2023-01-11T23:31:51.018Z,2.80
2023-01-11T23:34:26.017Z,4.97
2023-01-11T23:37:00.923Z,3.20
2023-01-11T23:39:35.831Z,5.87
2023-01-11T23:42:27.217Z,3.20
2023-01-11T23:45:02.257Z,6.10
2023-01-11T23:47:37.132Z,11.40
2023-01-11T23:50:12.058Z,4.60
2023-01-11T23:52:46.972Z,5.40
2023-01-11T23:55:22.195Z,6.87
2023-01-11T23:58:09.220Z,4.80
